sensor_id;sensor_type;location;lat;lon;timestamp;temperature;humidity
23073;DHT22;67971;51.046;3.732;2023-05-15T00:00:51;12.70;99.90
23073;DHT22;67971;51.046;3.732;2023-05-15T00:03:17;12.60;99.90
23073;DHT22;67971;51.046;3.732;2023-05-15T00:05:42;12.60;99.90
23073;DHT22;67971;51.046;3.732;2023-05-15T00:08:08;12.70;99.90
23073;DHT22;67971;51.046;3.732;2023-05-15T00:10:34;12.80;99.90
23073;DHT22;67971;51.046;3.732;2023-05-15T00:13:00;12.80;99.90
23073;DHT22;67971;51.046;3.732;2023-05-15T00:15:25;12.90;99.90
23073;DHT22;67971;51.046;3.732;2023-05-15T00:17:51;12.90;99.90
23073;DHT22;67971;51.046;3.732;2023-05-15T00:20:17;12.90;99.90
23073;DHT22;67971;51.046;3.732;2023-05-15T00:22:43;13.00;99.90
23073;DHT22;67971;51.046;3.732;2023-05-15T00:25:09;13.10;99.90
23073;DHT22;67971;51.046;3.732;2023-05-15T00:27:34;13.00;99.90
23073;DHT22;67971;51.046;3.732;2023-05-15T00:30:00;13.00;99.90
23073;DHT22;67971;51.046;3.732;2023-05-15T00:32:26;13.10;99.90
23073;DHT22;67971;51.046;3.732;2023-05-15T00:34:52;13.10;99.90
23073;DHT22;67971;51.046;3.732;2023-05-15T00:37:17;13.00;99.90
23073;DHT22;67971;51.046;3.732;2023-05-15T00:39:43;13.00;99.90
23073;DHT22;67971;51.046;3.732;2023-05-15T00:42:09;12.90;99.90
23073;DHT22;67971;51.046;3.732;2023-05-15T00:44:35;12.90;99.90
23073;DHT22;67971;51.046;3.732;2023-05-15T00:47:02;12.90;99.90
23073;DHT22;67971;51.046;3.732;2023-05-15T00:49:31;12.90;99.90
23073;DHT22;67971;51.046;3.732;2023-05-15T00:52:00;12.70;99.90
23073;DHT22;67971;51.046;3.732;2023-05-15T00:54:32;12.70;99.90
23073;DHT22;67971;51.046;3.732;2023-05-15T00:56:59;12.60;99.90
23073;DHT22;67971;51.046;3.732;2023-05-15T00:59:29;12.50;99.90
23073;DHT22;67971;51.046;3.732;2023-05-15T01:01:56;12.60;99.90
23073;DHT22;67971;51.046;3.732;2023-05-15T01:04:22;12.40;99.90
23073;DHT22;67971;51.046;3.732;2023-05-15T01:06:48;12.10;99.90
23073;DHT22;67971;51.046;3.732;2023-05-15T01:09:14;12.20;99.90
23073;DHT22;67971;51.046;3.732;2023-05-15T01:11:41;12.20;99.90
23073;DHT22;67971;51.046;3.732;2023-05-15T01:14:07;12.30;99.90
23073;DHT22;67971;51.046;3.732;2023-05-15T01:16:34;12.30;99.90
23073;DHT22;67971;51.046;3.732;2023-05-15T01:19:00;12.30;99.90
23073;DHT22;67971;51.046;3.732;2023-05-15T01:29:26;12.20;99.90
23073;DHT22;67971;51.046;3.732;2023-05-15T01:32:10;12.20;99.90
23073;DHT22;67971;51.046;3.732;2023-05-15T01:34:50;12.30;99.90
23073;DHT22;67971;51.046;3.732;2023-05-15T01:37:22;12.30;99.90
23073;DHT22;67971;51.046;3.732;2023-05-15T01:39:53;12.30;99.90
23073;DHT22;67971;51.046;3.732;2023-05-15T01:42:24;12.10;99.90
23073;DHT22;67971;51.046;3.732;2023-05-15T01:44:54;12.00;99.90
23073;DHT22;67971;51.046;3.732;2023-05-15T01:47:33;12.10;99.90
23073;DHT22;67971;51.046;3.732;2023-05-15T01:50:01;12.10;99.90
23073;DHT22;67971;51.046;3.732;2023-05-15T01:52:32;12.00;99.90
23073;DHT22;67971;51.046;3.732;2023-05-15T01:55:01;12.00;99.90
23073;DHT22;67971;51.046;3.732;2023-05-15T01:57:27;12.10;99.90
23073;DHT22;67971;51.046;3.732;2023-05-15T01:59:54;12.00;99.90
23073;DHT22;67971;51.046;3.732;2023-05-15T02:02:21;12.00;99.90
23073;DHT22;67971;51.046;3.732;2023-05-15T02:04:48;12.00;99.90
23073;DHT22;67971;51.046;3.732;2023-05-15T02:07:15;12.00;99.90
23073;DHT22;67971;51.046;3.732;2023-05-15T02:09:42;12.00;99.90
23073;DHT22;67971;51.046;3.732;2023-05-15T02:12:09;11.90;99.90
23073;DHT22;67971;51.046;3.732;2023-05-15T02:14:36;12.00;99.90
23073;DHT22;67971;51.046;3.732;2023-05-15T02:17:03;12.00;99.90
23073;DHT22;67971;51.046;3.732;2023-05-15T02:19:29;11.70;99.90
23073;DHT22;67971;51.046;3.732;2023-05-15T02:21:54;11.70;99.90
23073;DHT22;67971;51.046;3.732;2023-05-15T02:24:20;11.80;99.90
23073;DHT22;67971;51.046;3.732;2023-05-15T02:27:11;11.80;99.90
23073;DHT22;67971;51.046;3.732;2023-05-15T02:34:45;11.80;99.90
23073;DHT22;67971;51.046;3.732;2023-05-15T02:37:13;11.90;99.90
23073;DHT22;67971;51.046;3.732;2023-05-15T02:39:43;12.00;99.90
23073;DHT22;67971;51.046;3.732;2023-05-15T02:42:12;12.10;99.90
23073;DHT22;67971;51.046;3.732;2023-05-15T02:44:39;12.10;99.90
23073;DHT22;67971;51.046;3.732;2023-05-15T02:47:06;12.10;99.90
23073;DHT22;67971;51.046;3.732;2023-05-15T02:49:33;12.20;99.90
23073;DHT22;67971;51.046;3.732;2023-05-15T02:51:59;12.20;99.90
23073;DHT22;67971;51.046;3.732;2023-05-15T02:54:25;12.10;99.90
23073;DHT22;67971;51.046;3.732;2023-05-15T02:56:51;12.10;99.90
23073;DHT22;67971;51.046;3.732;2023-05-15T02:59:17;12.20;99.90
23073;DHT22;67971;51.046;3.732;2023-05-15T03:01:45;12.30;99.90
23073;DHT22;67971;51.046;3.732;2023-05-15T03:04:15;12.40;99.90
23073;DHT22;67971;51.046;3.732;2023-05-15T03:06:41;12.30;99.90
23073;DHT22;67971;51.046;3.732;2023-05-15T03:09:07;12.20;99.90
23073;DHT22;67971;51.046;3.732;2023-05-15T03:11:32;12.20;99.90
23073;DHT22;67971;51.046;3.732;2023-05-15T03:13:58;12.20;99.90
23073;DHT22;67971;51.046;3.732;2023-05-15T03:16:27;12.10;99.90
23073;DHT22;67971;51.046;3.732;2023-05-15T03:18:53;12.00;99.90
23073;DHT22;67971;51.046;3.732;2023-05-15T03:21:19;12.00;99.90
23073;DHT22;67971;51.046;3.732;2023-05-15T03:23:44;12.00;99.90
23073;DHT22;67971;51.046;3.732;2023-05-15T03:26:10;11.90;99.90
23073;DHT22;67971;51.046;3.732;2023-05-15T03:28:37;11.90;99.90
23073;DHT22;67971;51.046;3.732;2023-05-15T03:31:02;11.90;99.90
23073;DHT22;67971;51.046;3.732;2023-05-15T03:33:33;12.00;99.90
23073;DHT22;67971;51.046;3.732;2023-05-15T03:35:58;12.00;99.90
23073;DHT22;67971;51.046;3.732;2023-05-15T03:38:24;12.00;99.90
23073;DHT22;67971;51.046;3.732;2023-05-15T03:40:50;12.10;99.90
23073;DHT22;67971;51.046;3.732;2023-05-15T03:43:15;12.10;99.90
23073;DHT22;67971;51.046;3.732;2023-05-15T03:45:41;12.20;99.90
23073;DHT22;67971;51.046;3.732;2023-05-15T03:48:07;12.10;99.90
23073;DHT22;67971;51.046;3.732;2023-05-15T03:50:33;12.10;99.90
23073;DHT22;67971;51.046;3.732;2023-05-15T03:52:59;12.20;99.90
23073;DHT22;67971;51.046;3.732;2023-05-15T03:55:25;12.30;99.90
23073;DHT22;67971;51.046;3.732;2023-05-15T03:57:50;12.40;99.90
23073;DHT22;67971;51.046;3.732;2023-05-15T04:00:16;12.30;99.90
23073;DHT22;67971;51.046;3.732;2023-05-15T04:02:42;12.40;99.90
23073;DHT22;67971;51.046;3.732;2023-05-15T04:05:09;12.40;99.90
23073;DHT22;67971;51.046;3.732;2023-05-15T04:07:36;12.40;99.90
23073;DHT22;67971;51.046;3.732;2023-05-15T04:10:02;12.20;99.90
23073;DHT22;67971;51.046;3.732;2023-05-15T04:12:30;12.20;99.90
23073;DHT22;67971;51.046;3.732;2023-05-15T04:15:26;12.20;99.90
23073;DHT22;67971;51.046;3.732;2023-05-15T04:17:53;12.30;99.90
23073;DHT22;67971;51.046;3.732;2023-05-15T04:20:21;12.30;99.90
23073;DHT22;67971;51.046;3.732;2023-05-15T04:22:47;12.30;99.90
23073;DHT22;67971;51.046;3.732;2023-05-15T04:25:13;12.40;99.90
23073;DHT22;67971;51.046;3.732;2023-05-15T04:27:41;12.50;99.90
23073;DHT22;67971;51.046;3.732;2023-05-15T04:30:08;12.50;99.90
23073;DHT22;67971;51.046;3.732;2023-05-15T04:32:34;12.40;99.90
23073;DHT22;67971;51.046;3.732;2023-05-15T04:35:00;12.30;99.90
23073;DHT22;67971;51.046;3.732;2023-05-15T04:37:27;12.30;99.90
23073;DHT22;67971;51.046;3.732;2023-05-15T04:39:53;12.20;99.90
23073;DHT22;67971;51.046;3.732;2023-05-15T04:42:19;12.20;99.90
23073;DHT22;67971;51.046;3.732;2023-05-15T04:44:45;12.00;99.90
23073;DHT22;67971;51.046;3.732;2023-05-15T04:47:11;12.10;99.90
23073;DHT22;67971;51.046;3.732;2023-05-15T04:49:38;12.20;99.90
23073;DHT22;67971;51.046;3.732;2023-05-15T04:52:03;12.30;99.90
23073;DHT22;67971;51.046;3.732;2023-05-15T04:54:29;12.40;99.90
23073;DHT22;67971;51.046;3.732;2023-05-15T04:56:55;12.60;99.90
23073;DHT22;67971;51.046;3.732;2023-05-15T04:59:22;12.80;99.90
23073;DHT22;67971;51.046;3.732;2023-05-15T05:01:49;12.90;99.90
23073;DHT22;67971;51.046;3.732;2023-05-15T05:04:15;12.70;99.90
23073;DHT22;67971;51.046;3.732;2023-05-15T05:06:44;12.60;99.90
23073;DHT22;67971;51.046;3.732;2023-05-15T05:09:10;12.70;99.90
23073;DHT22;67971;51.046;3.732;2023-05-15T05:11:35;12.70;99.90
23073;DHT22;67971;51.046;3.732;2023-05-15T05:14:03;12.90;99.90
23073;DHT22;67971;51.046;3.732;2023-05-15T05:16:29;13.10;99.90
23073;DHT22;67971;51.046;3.732;2023-05-15T05:18:55;13.20;99.90
23073;DHT22;67971;51.046;3.732;2023-05-15T05:21:20;13.30;99.90
23073;DHT22;67971;51.046;3.732;2023-05-15T05:23:46;13.20;99.90
23073;DHT22;67971;51.046;3.732;2023-05-15T05:26:12;13.10;99.90
23073;DHT22;67971;51.046;3.732;2023-05-15T05:28:37;13.10;99.90
23073;DHT22;67971;51.046;3.732;2023-05-15T05:31:03;13.20;99.90
23073;DHT22;67971;51.046;3.732;2023-05-15T05:33:29;13.40;99.90
23073;DHT22;67971;51.046;3.732;2023-05-15T05:35:55;13.60;99.90
23073;DHT22;67971;51.046;3.732;2023-05-15T05:38:20;13.40;99.90
23073;DHT22;67971;51.046;3.732;2023-05-15T05:40:46;13.40;99.90
23073;DHT22;67971;51.046;3.732;2023-05-15T05:43:12;13.40;99.90
23073;DHT22;67971;51.046;3.732;2023-05-15T05:45:37;13.60;99.90
23073;DHT22;67971;51.046;3.732;2023-05-15T05:48:03;13.60;99.90
23073;DHT22;67971;51.046;3.732;2023-05-15T05:50:29;13.70;99.90
23073;DHT22;67971;51.046;3.732;2023-05-15T05:52:55;13.70;99.90
23073;DHT22;67971;51.046;3.732;2023-05-15T05:55:20;13.70;99.90
23073;DHT22;67971;51.046;3.732;2023-05-15T05:57:46;13.50;99.90
23073;DHT22;67971;51.046;3.732;2023-05-15T06:00:12;13.50;99.90
23073;DHT22;67971;51.046;3.732;2023-05-15T06:02:39;13.60;99.90
23073;DHT22;67971;51.046;3.732;2023-05-15T06:05:05;13.80;99.90
23073;DHT22;67971;51.046;3.732;2023-05-15T06:07:32;13.90;99.90
23073;DHT22;67971;51.046;3.732;2023-05-15T06:09:58;14.00;99.90
23073;DHT22;67971;51.046;3.732;2023-05-15T06:12:24;14.10;99.90
23073;DHT22;67971;51.046;3.732;2023-05-15T06:14:49;14.30;99.90
23073;DHT22;67971;51.046;3.732;2023-05-15T06:17:15;14.30;99.90
23073;DHT22;67971;51.046;3.732;2023-05-15T06:19:41;14.40;99.90
23073;DHT22;67971;51.046;3.732;2023-05-15T06:22:06;14.50;99.90
23073;DHT22;67971;51.046;3.732;2023-05-15T06:24:32;14.70;99.90
23073;DHT22;67971;51.046;3.732;2023-05-15T06:26:58;15.00;99.90
23073;DHT22;67971;51.046;3.732;2023-05-15T06:29:24;15.30;99.90
23073;DHT22;67971;51.046;3.732;2023-05-15T06:31:50;15.60;99.90
23073;DHT22;67971;51.046;3.732;2023-05-15T06:34:16;15.60;99.90
23073;DHT22;67971;51.046;3.732;2023-05-15T06:36:41;15.60;99.90
23073;DHT22;67971;51.046;3.732;2023-05-15T06:39:07;15.50;99.90
23073;DHT22;67971;51.046;3.732;2023-05-15T06:41:35;15.30;99.90
23073;DHT22;67971;51.046;3.732;2023-05-15T06:44:01;15.10;99.90
23073;DHT22;67971;51.046;3.732;2023-05-15T06:46:27;15.00;99.90
23073;DHT22;67971;51.046;3.732;2023-05-15T06:48:53;14.90;99.90
23073;DHT22;67971;51.046;3.732;2023-05-15T06:51:18;15.00;99.90
23073;DHT22;67971;51.046;3.732;2023-05-15T06:53:44;15.20;99.90
23073;DHT22;67971;51.046;3.732;2023-05-15T06:56:10;15.40;99.90
23073;DHT22;67971;51.046;3.732;2023-05-15T06:58:35;15.40;99.90
23073;DHT22;67971;51.046;3.732;2023-05-15T07:01:01;15.50;99.90
23073;DHT22;67971;51.046;3.732;2023-05-15T07:03:29;15.30;99.90
23073;DHT22;67971;51.046;3.732;2023-05-15T07:05:55;15.40;99.90
23073;DHT22;67971;51.046;3.732;2023-05-15T07:08:20;15.60;99.90
23073;DHT22;67971;51.046;3.732;2023-05-15T07:10:47;15.70;99.90
23073;DHT22;67971;51.046;3.732;2023-05-15T07:13:15;15.70;99.90
23073;DHT22;67971;51.046;3.732;2023-05-15T07:15:41;15.60;99.90
23073;DHT22;67971;51.046;3.732;2023-05-15T07:18:07;15.60;99.90
23073;DHT22;67971;51.046;3.732;2023-05-15T07:20:32;15.60;99.90
23073;DHT22;67971;51.046;3.732;2023-05-15T07:22:58;15.60;99.90
23073;DHT22;67971;51.046;3.732;2023-05-15T07:25:24;15.60;99.90
23073;DHT22;67971;51.046;3.732;2023-05-15T07:27:50;15.80;99.90
23073;DHT22;67971;51.046;3.732;2023-05-15T07:30:15;15.90;99.90
23073;DHT22;67971;51.046;3.732;2023-05-15T07:32:41;15.90;99.90
23073;DHT22;67971;51.046;3.732;2023-05-15T07:35:07;15.90;99.90
23073;DHT22;67971;51.046;3.732;2023-05-15T07:37:33;16.00;99.90
23073;DHT22;67971;51.046;3.732;2023-05-15T07:39:59;16.10;99.90
23073;DHT22;67971;51.046;3.732;2023-05-15T07:42:24;16.10;99.90
23073;DHT22;67971;51.046;3.732;2023-05-15T07:44:50;15.90;99.90
23073;DHT22;67971;51.046;3.732;2023-05-15T07:47:16;15.90;99.90
23073;DHT22;67971;51.046;3.732;2023-05-15T07:49:42;15.90;99.90
23073;DHT22;67971;51.046;3.732;2023-05-15T07:52:07;16.00;99.90
23073;DHT22;67971;51.046;3.732;2023-05-15T07:54:33;16.10;99.90
23073;DHT22;67971;51.046;3.732;2023-05-15T07:56:59;16.30;99.90
23073;DHT22;67971;51.046;3.732;2023-05-15T07:59:25;16.30;99.90
23073;DHT22;67971;51.046;3.732;2023-05-15T08:01:51;16.30;99.90
23073;DHT22;67971;51.046;3.732;2023-05-15T08:04:17;16.40;99.90
23073;DHT22;67971;51.046;3.732;2023-05-15T08:06:42;16.30;99.90
23073;DHT22;67971;51.046;3.732;2023-05-15T08:09:08;16.00;99.90
23073;DHT22;67971;51.046;3.732;2023-05-15T08:11:35;15.90;99.90
23073;DHT22;67971;51.046;3.732;2023-05-15T08:14:00;15.90;99.90
23073;DHT22;67971;51.046;3.732;2023-05-15T08:16:28;15.90;99.90
23073;DHT22;67971;51.046;3.732;2023-05-15T08:18:54;16.00;99.90
23073;DHT22;67971;51.046;3.732;2023-05-15T08:21:26;16.00;99.90
23073;DHT22;67971;51.046;3.732;2023-05-15T08:23:51;16.00;99.90
23073;DHT22;67971;51.046;3.732;2023-05-15T08:26:17;16.20;99.90
23073;DHT22;67971;51.046;3.732;2023-05-15T08:28:43;16.30;99.90
23073;DHT22;67971;51.046;3.732;2023-05-15T08:31:15;16.50;99.90
23073;DHT22;67971;51.046;3.732;2023-05-15T08:33:41;16.50;99.90
23073;DHT22;67971;51.046;3.732;2023-05-15T08:36:07;16.70;99.90
23073;DHT22;67971;51.046;3.732;2023-05-15T08:38:32;16.80;99.90
23073;DHT22;67971;51.046;3.732;2023-05-15T08:41:05;16.80;99.90
23073;DHT22;67971;51.046;3.732;2023-05-15T08:43:34;17.00;99.90
23073;DHT22;67971;51.046;3.732;2023-05-15T08:46:01;17.20;99.90
23073;DHT22;67971;51.046;3.732;2023-05-15T08:48:28;17.20;99.90
23073;DHT22;67971;51.046;3.732;2023-05-15T08:50:56;16.90;99.90
23073;DHT22;67971;51.046;3.732;2023-05-15T08:53:22;17.10;99.90
23073;DHT22;67971;51.046;3.732;2023-05-15T08:55:48;17.20;99.90
23073;DHT22;67971;51.046;3.732;2023-05-15T08:58:15;17.30;99.90
23073;DHT22;67971;51.046;3.732;2023-05-15T09:00:41;17.20;99.90
23073;DHT22;67971;51.046;3.732;2023-05-15T09:03:13;17.10;99.90
23073;DHT22;67971;51.046;3.732;2023-05-15T09:05:40;16.90;99.90
23073;DHT22;67971;51.046;3.732;2023-05-15T09:08:06;16.60;99.90
23073;DHT22;67971;51.046;3.732;2023-05-15T09:10:33;16.40;99.90
23073;DHT22;67971;51.046;3.732;2023-05-15T09:13:01;16.00;99.90
23073;DHT22;67971;51.046;3.732;2023-05-15T09:15:27;15.90;99.90
23073;DHT22;67971;51.046;3.732;2023-05-15T09:17:53;15.80;99.90
23073;DHT22;67971;51.046;3.732;2023-05-15T09:20:33;15.80;99.90
23073;DHT22;67971;51.046;3.732;2023-05-15T09:23:01;15.60;99.90
23073;DHT22;67971;51.046;3.732;2023-05-15T09:25:41;15.50;99.90
23073;DHT22;67971;51.046;3.732;2023-05-15T09:28:30;15.40;99.90
23073;DHT22;67971;51.046;3.732;2023-05-15T09:31:03;15.40;99.90
23073;DHT22;67971;51.046;3.732;2023-05-15T09:35:59;15.50;99.90
23073;DHT22;67971;51.046;3.732;2023-05-15T09:38:26;15.50;99.90
23073;DHT22;67971;51.046;3.732;2023-05-15T09:41:00;15.60;99.90
23073;DHT22;67971;51.046;3.732;2023-05-15T09:43:37;15.40;99.90
23073;DHT22;67971;51.046;3.732;2023-05-15T09:46:04;15.30;99.90
23073;DHT22;67971;51.046;3.732;2023-05-15T09:48:31;15.50;99.90
23073;DHT22;67971;51.046;3.732;2023-05-15T09:50:57;15.60;99.90
23073;DHT22;67971;51.046;3.732;2023-05-15T09:53:23;15.90;99.90
23073;DHT22;67971;51.046;3.732;2023-05-15T09:55:50;16.10;99.90
23073;DHT22;67971;51.046;3.732;2023-05-15T09:58:17;16.10;99.90
23073;DHT22;67971;51.046;3.732;2023-05-15T10:00:44;16.30;99.90
23073;DHT22;67971;51.046;3.732;2023-05-15T10:03:11;16.30;99.90
23073;DHT22;67971;51.046;3.732;2023-05-15T10:05:38;16.40;99.90
23073;DHT22;67971;51.046;3.732;2023-05-15T10:08:04;16.40;99.90
23073;DHT22;67971;51.046;3.732;2023-05-15T10:10:30;16.50;99.90
23073;DHT22;67971;51.046;3.732;2023-05-15T10:12:59;16.50;99.90
23073;DHT22;67971;51.046;3.732;2023-05-15T10:15:28;16.60;99.90
23073;DHT22;67971;51.046;3.732;2023-05-15T10:17:54;16.50;99.90
23073;DHT22;67971;51.046;3.732;2023-05-15T10:20:23;16.40;99.90
23073;DHT22;67971;51.046;3.732;2023-05-15T10:22:51;16.30;99.90
23073;DHT22;67971;51.046;3.732;2023-05-15T10:28:01;16.00;99.90
23073;DHT22;67971;51.046;3.732;2023-05-15T10:30:28;15.70;99.90
23073;DHT22;67971;51.046;3.732;2023-05-15T10:32:55;15.80;99.90
23073;DHT22;67971;51.046;3.732;2023-05-15T10:35:22;15.80;99.90
23073;DHT22;67971;51.046;3.732;2023-05-15T10:37:48;15.70;99.90
23073;DHT22;67971;51.046;3.732;2023-05-15T10:40:15;15.60;99.90
23073;DHT22;67971;51.046;3.732;2023-05-15T10:42:43;15.40;99.90
23073;DHT22;67971;51.046;3.732;2023-05-15T10:45:09;15.20;99.90
23073;DHT22;67971;51.046;3.732;2023-05-15T10:47:37;15.30;99.90
23073;DHT22;67971;51.046;3.732;2023-05-15T10:50:04;15.30;99.90
23073;DHT22;67971;51.046;3.732;2023-05-15T10:52:31;15.30;99.90
23073;DHT22;67971;51.046;3.732;2023-05-15T10:54:58;15.50;99.90
23073;DHT22;67971;51.046;3.732;2023-05-15T10:57:27;15.40;99.90
23073;DHT22;67971;51.046;3.732;2023-05-15T10:59:53;15.40;99.90
23073;DHT22;67971;51.046;3.732;2023-05-15T11:04:46;15.30;99.90
23073;DHT22;67971;51.046;3.732;2023-05-15T11:07:13;15.20;99.90
23073;DHT22;67971;51.046;3.732;2023-05-15T11:09:40;15.30;99.90
23073;DHT22;67971;51.046;3.732;2023-05-15T11:12:07;15.40;99.90
23073;DHT22;67971;51.046;3.732;2023-05-15T11:14:37;15.30;99.90
23073;DHT22;67971;51.046;3.732;2023-05-15T11:17:05;15.30;99.90
23073;DHT22;67971;51.046;3.732;2023-05-15T11:22:39;15.20;99.90
23073;DHT22;67971;51.046;3.732;2023-05-15T11:25:09;14.70;99.90
23073;DHT22;67971;51.046;3.732;2023-05-15T11:27:40;14.50;99.90
23073;DHT22;67971;51.046;3.732;2023-05-15T11:35:39;14.10;99.90
23073;DHT22;67971;51.046;3.732;2023-05-15T11:38:12;14.00;99.90
23073;DHT22;67971;51.046;3.732;2023-05-15T11:40:47;14.00;99.90
23073;DHT22;67971;51.046;3.732;2023-05-15T11:43:22;13.90;99.90
23073;DHT22;67971;51.046;3.732;2023-05-15T11:45:53;13.90;99.90
23073;DHT22;67971;51.046;3.732;2023-05-15T11:48:22;13.90;99.90
23073;DHT22;67971;51.046;3.732;2023-05-15T11:50:48;14.00;99.90
23073;DHT22;67971;51.046;3.732;2023-05-15T11:53:14;14.10;99.90
23073;DHT22;67971;51.046;3.732;2023-05-15T11:55:42;14.30;99.90
23073;DHT22;67971;51.046;3.732;2023-05-15T11:58:14;14.50;99.90
23073;DHT22;67971;51.046;3.732;2023-05-15T12:00:40;14.50;99.90
23073;DHT22;67971;51.046;3.732;2023-05-15T12:03:12;14.40;99.90
23073;DHT22;67971;51.046;3.732;2023-05-15T12:05:40;14.40;99.90
23073;DHT22;67971;51.046;3.732;2023-05-15T12:08:09;14.50;99.90
23073;DHT22;67971;51.046;3.732;2023-05-15T12:10:39;14.60;99.90
23073;DHT22;67971;51.046;3.732;2023-05-15T12:13:06;14.80;99.90
23073;DHT22;67971;51.046;3.732;2023-05-15T12:15:31;14.90;99.90
23073;DHT22;67971;51.046;3.732;2023-05-15T12:18:02;14.90;99.90
23073;DHT22;67971;51.046;3.732;2023-05-15T12:20:28;15.10;99.90
23073;DHT22;67971;51.046;3.732;2023-05-15T12:22:54;15.20;99.90
23073;DHT22;67971;51.046;3.732;2023-05-15T12:25:20;15.00;99.90
23073;DHT22;67971;51.046;3.732;2023-05-15T12:27:46;15.00;99.90
23073;DHT22;67971;51.046;3.732;2023-05-15T12:30:14;15.00;99.90
23073;DHT22;67971;51.046;3.732;2023-05-15T12:32:40;15.00;99.90
23073;DHT22;67971;51.046;3.732;2023-05-15T12:35:06;15.00;99.90
23073;DHT22;67971;51.046;3.732;2023-05-15T12:37:33;15.10;99.90
23073;DHT22;67971;51.046;3.732;2023-05-15T12:40:02;15.10;99.90
23073;DHT22;67971;51.046;3.732;2023-05-15T12:42:30;15.00;99.90
23073;DHT22;67971;51.046;3.732;2023-05-15T12:44:56;15.10;99.90
23073;DHT22;67971;51.046;3.732;2023-05-15T12:47:23;15.10;99.90
23073;DHT22;67971;51.046;3.732;2023-05-15T12:49:49;15.10;99.90
23073;DHT22;67971;51.046;3.732;2023-05-15T12:52:15;15.10;99.90
23073;DHT22;67971;51.046;3.732;2023-05-15T12:54:43;14.70;99.90
23073;DHT22;67971;51.046;3.732;2023-05-15T12:57:09;14.40;99.90
23073;DHT22;67971;51.046;3.732;2023-05-15T12:59:35;14.50;99.90
23073;DHT22;67971;51.046;3.732;2023-05-15T13:02:03;14.80;99.90
23073;DHT22;67971;51.046;3.732;2023-05-15T13:04:32;14.80;99.90
23073;DHT22;67971;51.046;3.732;2023-05-15T13:06:57;14.90;99.90
23073;DHT22;67971;51.046;3.732;2023-05-15T13:09:23;15.10;99.90
23073;DHT22;67971;51.046;3.732;2023-05-15T13:11:53;15.00;99.90
23073;DHT22;67971;51.046;3.732;2023-05-15T13:14:19;14.80;99.90
23073;DHT22;67971;51.046;3.732;2023-05-15T13:16:46;14.50;99.90
23073;DHT22;67971;51.046;3.732;2023-05-15T13:19:12;14.30;99.90
23073;DHT22;67971;51.046;3.732;2023-05-15T13:21:38;14.40;99.90
23073;DHT22;67971;51.046;3.732;2023-05-15T13:24:05;14.30;99.90
23073;DHT22;67971;51.046;3.732;2023-05-15T13:26:34;14.20;99.90
23073;DHT22;67971;51.046;3.732;2023-05-15T13:28:59;14.20;99.90
23073;DHT22;67971;51.046;3.732;2023-05-15T13:31:26;14.30;99.90
23073;DHT22;67971;51.046;3.732;2023-05-15T13:33:51;14.30;99.90
23073;DHT22;67971;51.046;3.732;2023-05-15T13:36:17;14.20;99.90
23073;DHT22;67971;51.046;3.732;2023-05-15T13:38:43;14.30;99.90
23073;DHT22;67971;51.046;3.732;2023-05-15T13:41:09;14.20;99.90
23073;DHT22;67971;51.046;3.732;2023-05-15T13:43:34;13.80;99.90
23073;DHT22;67971;51.046;3.732;2023-05-15T13:46:00;13.60;99.90
23073;DHT22;67971;51.046;3.732;2023-05-15T13:48:26;13.60;99.90
23073;DHT22;67971;51.046;3.732;2023-05-15T13:50:51;13.80;99.90
23073;DHT22;67971;51.046;3.732;2023-05-15T13:53:17;13.90;99.90
23073;DHT22;67971;51.046;3.732;2023-05-15T13:55:44;14.10;99.90
23073;DHT22;67971;51.046;3.732;2023-05-15T13:58:11;14.40;99.90
23073;DHT22;67971;51.046;3.732;2023-05-15T14:00:37;14.60;99.90
23073;DHT22;67971;51.046;3.732;2023-05-15T14:03:04;14.70;99.90
23073;DHT22;67971;51.046;3.732;2023-05-15T14:05:29;14.80;99.90
23073;DHT22;67971;51.046;3.732;2023-05-15T14:07:55;14.80;99.90
23073;DHT22;67971;51.046;3.732;2023-05-15T14:10:24;14.60;99.90
23073;DHT22;67971;51.046;3.732;2023-05-15T14:12:49;14.60;99.90
23073;DHT22;67971;51.046;3.732;2023-05-15T14:15:15;14.70;99.90
23073;DHT22;67971;51.046;3.732;2023-05-15T14:17:41;14.80;99.90
23073;DHT22;67971;51.046;3.732;2023-05-15T14:20:08;14.90;99.90
23073;DHT22;67971;51.046;3.732;2023-05-15T14:22:35;15.00;99.90
23073;DHT22;67971;51.046;3.732;2023-05-15T14:25:01;15.10;99.90
23073;DHT22;67971;51.046;3.732;2023-05-15T14:27:28;15.20;99.90
23073;DHT22;67971;51.046;3.732;2023-05-15T14:29:54;15.10;99.90
23073;DHT22;67971;51.046;3.732;2023-05-15T14:32:21;15.00;99.90
23073;DHT22;67971;51.046;3.732;2023-05-15T14:34:47;15.10;99.90
23073;DHT22;67971;51.046;3.732;2023-05-15T14:37:13;15.10;99.90
23073;DHT22;67971;51.046;3.732;2023-05-15T14:39:39;14.80;99.90
23073;DHT22;67971;51.046;3.732;2023-05-15T14:42:05;14.80;99.90
23073;DHT22;67971;51.046;3.732;2023-05-15T14:44:32;14.90;99.90
23073;DHT22;67971;51.046;3.732;2023-05-15T14:47:08;15.20;99.90
23073;DHT22;67971;51.046;3.732;2023-05-15T14:49:35;15.30;99.90
23073;DHT22;67971;51.046;3.732;2023-05-15T14:52:02;15.40;99.90
23073;DHT22;67971;51.046;3.732;2023-05-15T14:54:28;15.40;99.90
23073;DHT22;67971;51.046;3.732;2023-05-15T14:56:54;15.30;99.90
23073;DHT22;67971;51.046;3.732;2023-05-15T14:59:20;15.10;99.90
23073;DHT22;67971;51.046;3.732;2023-05-15T15:01:45;14.90;99.90
23073;DHT22;67971;51.046;3.732;2023-05-15T15:04:11;14.80;99.90
23073;DHT22;67971;51.046;3.732;2023-05-15T15:06:37;14.70;99.90
23073;DHT22;67971;51.046;3.732;2023-05-15T15:09:03;14.60;99.90
23073;DHT22;67971;51.046;3.732;2023-05-15T15:11:28;14.60;99.90
23073;DHT22;67971;51.046;3.732;2023-05-15T15:13:54;14.50;99.90
23073;DHT22;67971;51.046;3.732;2023-05-15T15:16:20;14.40;99.90
23073;DHT22;67971;51.046;3.732;2023-05-15T15:18:46;14.40;99.90
23073;DHT22;67971;51.046;3.732;2023-05-15T15:21:11;14.60;99.90
23073;DHT22;67971;51.046;3.732;2023-05-15T15:23:37;14.80;99.90
23073;DHT22;67971;51.046;3.732;2023-05-15T15:26:03;14.80;99.90
23073;DHT22;67971;51.046;3.732;2023-05-15T15:28:29;14.80;99.90
23073;DHT22;67971;51.046;3.732;2023-05-15T15:31:01;14.70;99.90
23073;DHT22;67971;51.046;3.732;2023-05-15T15:33:27;14.70;99.90
23073;DHT22;67971;51.046;3.732;2023-05-15T15:35:53;14.60;99.90
23073;DHT22;67971;51.046;3.732;2023-05-15T15:38:18;14.70;99.90
23073;DHT22;67971;51.046;3.732;2023-05-15T15:40:44;14.80;99.90
23073;DHT22;67971;51.046;3.732;2023-05-15T15:43:10;14.70;99.90
23073;DHT22;67971;51.046;3.732;2023-05-15T15:45:36;14.80;99.90
23073;DHT22;67971;51.046;3.732;2023-05-15T15:48:01;14.70;99.90
23073;DHT22;67971;51.046;3.732;2023-05-15T15:50:27;14.80;99.90
23073;DHT22;67971;51.046;3.732;2023-05-15T15:52:53;14.80;99.90
23073;DHT22;67971;51.046;3.732;2023-05-15T15:55:19;14.90;99.90
23073;DHT22;67971;51.046;3.732;2023-05-15T15:57:44;15.00;99.90